Time;durP1;ratioP1;P1;durP2;ratioP2;P2;SDS_P1;SDS_P2;PMS_P1;PMS_P2;Temp;Humidity;BMP_temperature;BMP_pressure;BME280_temperature;BME280_humidity;BME280_pressure;Samples;Min_cycle;Max_cycle;Signal;HPM_P1;HPM_P2
2022/03/12 00:01:19;;;;;;;26.90;14.90;;;;;;;-5.68;44.25;101173.73;433370;1271;166805;-64
2022/03/12 00:11:28;;;;;;;24.20;13.20;;;;;;;-5.80;44.61;101173.73;431461;1270;141292;-64
2022/03/12 00:21:35;;;;;;;23.00;12.50;;;;;;;-6.01;45.07;101173.48;431746;1270;141922;-64
2022/03/12 00:31:42;;;;;;;19.10;12.60;;;;;;;-6.17;45.50;101167.23;431720;1271;141130;-63
2022/03/12 00:41:48;;;;;;;22.80;12.60;;;;;;;-6.27;45.78;101169.67;431334;1271;140468;-63
2022/03/12 00:51:54;;;;;;;23.10;13.10;;;;;;;-6.29;46.19;101168.57;430398;1271;141195;-65
2022/03/12 01:02:00;;;;;;;24.70;12.60;;;;;;;-6.25;46.31;101170.75;430726;1271;141343;-63
2022/03/12 01:12:08;;;;;;;21.40;11.70;;;;;;;-6.22;46.35;101172.05;432769;1271;141211;-65
2022/03/12 01:22:19;;;;;;;25.40;13.80;;;;;;;-6.13;46.32;101169.73;433957;1271;142725;-66
2022/03/12 01:32:25;;;;;;;23.30;11.90;;;;;;;-6.13;46.46;101169.57;431811;1271;141242;-65
2022/03/12 01:42:31;;;;;;;20.50;12.10;;;;;;;-6.16;46.54;101171.86;432332;1271;140787;-65
2022/03/12 01:52:37;;;;;;;25.30;13.60;;;;;;;-6.17;46.71;101167.23;431229;1270;142615;-65
2022/03/12 02:02:42;;;;;;;20.40;13.10;;;;;;;-6.21;46.89;101165.75;430685;1271;141115;-65
2022/03/12 02:12:49;;;;;;;24.80;13.10;;;;;;;-6.30;47.11;101162.75;431682;1270;141290;-65
2022/03/12 02:22:55;;;;;;;22.20;13.00;;;;;;;-6.34;47.47;101154.96;432034;1270;142122;-64
2022/03/12 02:33:02;;;;;;;23.00;11.20;;;;;;;-6.46;47.79;101139.80;431418;1270;141545;-64
2022/03/12 02:43:13;;;;;;;19.20;12.50;;;;;;;-6.52;47.98;101134.33;430966;1270;141099;-64
2022/03/12 02:53:20;;;;;;;24.70;12.60;;;;;;;-6.54;48.17;101126.58;433551;1270;140817;-64
2022/03/12 03:03:26;;;;;;;22.80;12.20;;;;;;;-6.64;48.48;101119.14;432197;1270;141507;-64
2022/03/12 03:13:37;;;;;;;25.00;13.70;;;;;;;-6.69;48.89;101122.39;431184;1270;140774;-64
2022/03/12 03:23:45;;;;;;;25.10;15.80;;;;;;;-6.75;49.01;101115.89;432877;1270;141177;-65
2022/03/12 03:33:51;;;;;;;27.40;13.00;;;;;;;-6.74;49.31;101109.45;432377;1270;141003;-65
2022/03/12 03:43:57;;;;;;;21.40;11.90;;;;;;;-6.69;49.38;101106.52;433531;1270;141561;-64
2022/03/12 03:54:02;;;;;;;22.70;12.90;;;;;;;-6.67;49.40;101115.30;431546;1270;141152;-64
2022/03/12 04:04:12;;;;;;;24.30;13.40;;;;;;;-6.68;49.59;101110.01;430571;1270;142435;-63
2022/03/12 04:14:17;;;;;;;24.20;14.00;;;;;;;-6.72;49.68;101106.62;431272;1270;142027;-65
2022/03/12 04:24:24;;;;;;;21.30;13.80;;;;;;;-6.79;50.00;101101.64;429984;1270;142449;-63
2022/03/12 04:34:30;;;;;;;21.70;12.70;;;;;;;-6.76;50.16;101104.11;432757;1270;141347;-64
2022/03/12 04:44:41;;;;;;;24.80;12.80;;;;;;;-6.77;50.24;101099.98;431898;1270;142390;-65
2022/03/12 04:54:46;;;;;;;26.60;13.10;;;;;;;-6.70;50.33;101095.61;430930;1270;142619;-62
2022/03/12 05:04:52;;;;;;;23.80;12.60;;;;;;;-6.72;50.31;101099.46;430790;1270;143027;-62
2022/03/12 05:14:58;;;;;;;21.70;13.90;;;;;;;-6.63;50.43;101094.30;430480;1271;141510;-64
2022/03/12 05:25:04;;;;;;;21.50;12.80;;;;;;;-6.51;50.37;101090.56;431379;1270;141788;-66
2022/03/12 05:35:11;;;;;;;24.10;13.50;;;;;;;-6.31;50.37;101091.33;431626;1270;141420;-63
2022/03/12 05:45:19;;;;;;;25.60;13.50;;;;;;;-5.75;49.95;101086.19;430710;1270;144739;-63
2022/03/12 05:55:25;;;;;;;23.80;12.70;;;;;;;-5.07;49.43;101083.09;432597;1270;142276;-64
2022/03/12 06:05:31;;;;;;;24.90;14.00;;;;;;;-0.90;47.08;101078.23;431246;1270;142990;-63
2022/03/12 06:15:41;;;;;;;24.90;13.90;;;;;;;5.64;41.17;101057.14;430898;1270;142430;-62
2022/03/12 06:25:47;;;;;;;20.10;12.80;;;;;;;10.14;35.56;101044.33;430389;1270;141009;-63
2022/03/12 06:35:54;;;;;;;15.10;11.90;;;;;;;12.50;32.11;101031.92;430703;1270;145629;-63
2022/03/12 06:46:02;;;;;;;20.70;14.50;;;;;;;14.82;29.37;101026.14;429749;1270;142903;-63
2022/03/12 06:56:09;;;;;;;15.70;12.10;;;;;;;16.21;27.27;101027.09;430319;1270;141449;-62
2022/03/12 07:06:15;;;;;;;15.50;11.30;;;;;;;17.96;25.76;101018.89;430266;1270;142095;-63
2022/03/12 07:16:20;;;;;;;15.70;12.30;;;;;;;19.29;24.26;101025.56;431205;1270;145459;-62
2022/03/12 07:26:27;;;;;;;16.00;12.30;;;;;;;19.91;22.93;101021.61;432237;1270;141246;-64
2022/03/12 07:36:33;;;;;;;16.60;12.80;;;;;;;21.61;22.13;101018.27;431716;1270;142056;-63
2022/03/12 07:46:40;;;;;;;15.30;10.60;;;;;;;22.65;21.21;101015.55;431099;1270;143134;-63
2022/03/12 07:56:46;;;;;;;12.30;9.60;;;;;;;24.58;20.19;101005.30;431250;1271;141375;-63
2022/03/12 08:06:52;;;;;;;7.70;6.90;;;;;;;26.03;18.90;100997.46;430626;1270;142288;-63
2022/03/12 08:16:56;;;;;;;;;;;;;;;26.34;18.00;100984.23;432648;1270;141820;-64
2022/03/12 08:27:03;;;;;;;7.80;6.00;;;;;;;26.93;17.43;100975.59;431402;1270;130765;-63
2022/03/12 08:37:09;;;;;;;8.10;6.80;;;;;;;28.54;16.79;100972.70;431248;1271;142164;-63
2022/03/12 08:47:15;;;;;;;6.40;5.90;;;;;;;28.99;16.02;100964.52;431900;1270;142844;-64
2022/03/12 08:57:21;;;;;;;5.90;5.30;;;;;;;29.46;15.47;100959.92;431426;1270;141732;-63
2022/03/12 09:07:27;;;;;;;6.30;5.60;;;;;;;29.42;15.04;100973.90;432029;1270;139957;-60
2022/03/12 09:17:33;;;;;;;6.70;5.40;;;;;;;26.74;14.79;100981.75;431863;1271;141640;-64
2022/03/12 09:27:39;;;;;;;8.00;6.20;;;;;;;18.00;16.20;100986.75;431079;1270;141670;-63
2022/03/12 09:37:45;;;;;;;13.30;7.70;;;;;;;12.91;18.24;100983.86;431937;1270;141258;-64
2022/03/12 09:47:51;;;;;;;14.40;7.00;;;;;;;9.87;20.06;100979.11;430412;1271;141902;-64
2022/03/12 09:57:57;;;;;;;7.90;6.20;;;;;;;8.15;21.58;100970.13;436421;1270;198745;-63
2022/03/12 10:08:04;;;;;;;11.50;6.70;;;;;;;7.00;22.45;100967.88;430840;1271;140696;-64
2022/03/12 10:18:10;;;;;;;8.30;6.20;;;;;;;6.24;23.46;100963.02;431045;1270;143232;-63
2022/03/12 10:28:16;;;;;;;10.40;5.90;;;;;;;5.66;24.30;100951.27;431541;1270;207263;-63
2022/03/12 10:38:25;;;;;;;7.50;5.40;;;;;;;5.49;24.61;100940.68;432596;1270;140132;-64
2022/03/12 10:48:39;;;;;;;8.90;6.00;;;;;;;5.27;24.34;100931.25;429750;1271;144346;-65
2022/03/12 10:58:45;;;;;;;10.80;5.80;;;;;;;5.12;24.30;100930.33;430477;1271;140616;-67
2022/03/12 11:08:51;;;;;;;7.70;4.10;;;;;;;4.98;24.33;100929.56;434791;1270;141366;-66
2022/03/12 11:19:07;;;;;;;5.40;3.70;;;;;;;4.97;24.64;100921.76;430740;1271;144015;-66
2022/03/12 11:29:14;;;;;;;6.50;4.40;;;;;;;4.92;24.73;100916.13;434361;1271;140177;-67
2022/03/12 11:39:29;;;;;;;6.60;4.70;;;;;;;4.83;24.99;100910.40;430928;1271;141351;-65
2022/03/12 11:49:36;;;;;;;7.20;4.60;;;;;;;4.86;24.52;100886.58;431788;1271;140710;-68
2022/03/12 11:59:42;;;;;;;7.90;3.80;;;;;;;4.90;24.48;100876.27;430811;1271;208089;-68
2022/03/12 12:09:58;;;;;;;6.90;4.20;;;;;;;4.95;24.54;100865.92;432695;1270;141369;-67
2022/03/12 12:20:16;;;;;;;8.20;4.70;;;;;;;5.04;24.02;100860.71;431189;1270;141481;-68
2022/03/12 12:30:39;;;;;;;3.90;3.10;;;;;;;5.34;23.84;100851.41;431015;1270;140833;-69
2022/03/12 12:40:48;;;;;;;5.00;3.20;;;;;;;5.44;23.31;100851.36;432528;1270;140419;-68
2022/03/12 12:51:08;;;;;;;6.80;3.40;;;;;;;5.49;23.12;100851.08;431762;1270;196801;-69
2022/03/12 13:01:19;;;;;;;7.70;3.90;;;;;;;5.44;23.32;100843.54;430465;1270;141492;-69
2022/03/12 13:11:33;;;;;;;10.20;4.40;;;;;;;5.49;23.26;100836.31;431628;1271;141089;-67
2022/03/12 13:21:40;;;;;;;4.90;3.60;;;;;;;5.55;23.80;100826.61;431313;1271;141718;-70
2022/03/12 13:31:47;;;;;;;6.70;4.20;;;;;;;5.57;24.11;100815.62;432542;1270;141204;-69
2022/03/12 13:41:55;;;;;;;7.30;4.10;;;;;;;5.62;24.70;100794.84;431117;1269;141116;-70
2022/03/12 13:52:01;;;;;;;7.30;3.80;;;;;;;5.60;24.42;100787.41;431069;1270;140368;-70
2022/03/12 14:02:12;;;;;;;6.70;4.20;;;;;;;5.68;24.57;100779.41;435723;1269;194298;-70
2022/03/12 14:12:25;;;;;;;5.80;3.80;;;;;;;5.69;24.61;100768.95;432625;1270;143080;-63
2022/03/12 14:22:33;;;;;;;7.50;4.30;;;;;;;5.70;24.73;100770.48;431966;1270;141087;-55
2022/03/12 14:32:39;;;;;;;5.90;4.00;;;;;;;5.75;24.94;100775.56;432399;1270;140932;-60
2022/03/12 14:42:45;;;;;;;9.20;4.80;;;;;;;5.75;25.21;100770.55;431618;1270;140809;-61
2022/03/12 14:52:53;;;;;;;5.90;4.20;;;;;;;5.68;25.36;100765.85;432878;1270;140037;-61
2022/03/12 15:03:10;;;;;;;5.50;4.30;;;;;;;5.61;25.21;100754.20;431808;1270;140630;-61
2022/03/12 15:13:16;;;;;;;5.80;3.60;;;;;;;5.58;25.34;100744.56;431455;1270;140461;-62
2022/03/12 15:23:23;;;;;;;8.20;3.80;;;;;;;5.48;25.18;100741.34;431067;1270;140961;-61
2022/03/12 15:33:31;;;;;;;5.90;3.90;;;;;;;5.36;25.28;100732.92;432844;1269;141616;-62
2022/03/12 15:43:37;;;;;;;5.10;3.40;;;;;;;5.22;25.60;100734.81;433704;1269;143549;-64
2022/03/12 15:53:44;;;;;;;11.50;5.70;;;;;;;5.03;25.86;100725.18;433873;1270;141001;-61
2022/03/12 16:03:50;;;;;;;5.40;3.90;;;;;;;4.79;25.97;100718.25;431302;1270;141208;-61
2022/03/12 16:13:56;;;;;;;5.50;4.00;;;;;;;4.53;26.10;100713.08;432736;1269;141038;-62
2022/03/12 16:24:02;;;;;;;7.90;5.80;;;;;;;4.28;26.37;100717.39;431196;1269;140851;-61
2022/03/12 16:34:08;;;;;;;10.50;6.40;;;;;;;3.98;26.53;100718.13;430660;1270;141518;-61
2022/03/12 16:44:18;;;;;;;10.40;7.40;;;;;;;3.66;26.97;100710.73;434070;1270;141826;-64
2022/03/12 16:54:24;;;;;;;13.50;7.40;;;;;;;3.27;27.39;100719.16;432019;1270;141644;-65
2022/03/12 17:04:30;;;;;;;13.80;8.70;;;;;;;2.87;27.91;100712.81;431819;1270;142056;-64
2022/03/12 17:14:36;;;;;;;28.80;17.00;;;;;;;2.43;28.41;100715.98;432253;1270;141353;-65
2022/03/12 17:24:45;;;;;;;25.50;15.30;;;;;;;2.05;29.01;100713.82;432236;1270;140976;-66
2022/03/12 17:34:53;;;;;;;22.10;13.00;;;;;;;1.81;29.37;100707.67;431224;1270;141284;-65
2022/03/12 17:45:00;;;;;;;23.30;11.20;;;;;;;1.55;29.96;100703.61;432031;1269;141100;-66
2022/03/12 17:55:10;;;;;;;36.30;17.00;;;;;;;1.08;31.96;100700.69;432595;1269;141511;-64
2022/03/12 18:05:20;;;;;;;32.90;14.20;;;;;;;0.65;32.86;100706.46;432687;1270;141804;-65
2022/03/12 18:15:26;;;;;;;38.10;15.20;;;;;;;0.21;34.80;100701.30;433099;1270;141904;-65
2022/03/12 18:25:33;;;;;;;36.00;17.10;;;;;;;-0.22;36.09;100695.73;431628;1270;142055;-65
2022/03/12 18:35:39;;;;;;;50.10;26.50;;;;;;;-0.61;36.56;100697.83;431232;1270;141873;-65
2022/03/12 18:45:50;;;;;;;45.80;22.10;;;;;;;-0.83;36.19;100693.19;431234;1270;141121;-65
2022/03/12 18:55:58;;;;;;;43.20;21.30;;;;;;;-1.06;37.45;100697.80;433189;1270;141837;-65
2022/03/12 19:06:04;;;;;;;39.90;20.50;;;;;;;-1.34;38.49;100705.13;434052;1270;141862;-64
2022/03/12 19:16:10;;;;;;;46.50;20.20;;;;;;;-1.58;38.87;100698.52;432428;1269;143298;-65
2022/03/12 19:26:17;;;;;;;55.70;28.20;;;;;;;-1.79;39.59;100708.73;432831;1270;191944;-65
2022/03/12 19:36:23;;;;;;;44.00;27.00;;;;;;;-1.79;38.80;100714.73;431531;1270;144063;-64
2022/03/12 19:46:29;;;;;;;35.30;20.70;;;;;;;-1.71;38.66;100717.34;432156;1270;141064;-63
2022/03/12 19:56:35;;;;;;;40.80;20.80;;;;;;;-1.59;38.40;100723.58;434172;1270;142487;-65
2022/03/12 20:06:42;;;;;;;50.70;26.30;;;;;;;-1.62;38.50;100719.27;431103;1270;142479;-64
2022/03/12 20:16:48;;;;;;;51.90;26.60;;;;;;;-1.67;39.17;100718.39;431249;1270;143554;-66
2022/03/12 20:26:55;;;;;;;43.30;25.10;;;;;;;-1.78;39.83;100715.43;432582;1269;142778;-64
2022/03/12 20:37:02;;;;;;;51.80;30.90;;;;;;;-1.94;40.28;100716.89;430883;1270;141458;-68
2022/03/12 20:47:09;;;;;;;48.70;28.70;;;;;;;-2.08;40.60;100711.84;431416;1270;141453;-64
2022/03/12 20:57:15;;;;;;;49.80;29.30;;;;;;;-2.19;40.52;100711.42;431576;1270;140800;-64
2022/03/12 21:07:21;;;;;;;44.90;26.80;;;;;;;-2.16;40.11;100700.64;432577;1268;142514;-64
2022/03/12 21:17:27;;;;;;;46.20;27.10;;;;;;;-2.26;40.73;100702.63;432495;1269;142368;-65
2022/03/12 21:27:36;;;;;;;38.60;23.40;;;;;;;-2.21;40.32;100702.14;431048;1270;141884;-64
2022/03/12 21:37:42;;;;;;;33.70;21.70;;;;;;;-2.14;40.12;100699.77;431829;1270;141504;-64
2022/03/12 21:47:48;;;;;;;40.30;23.80;;;;;;;-2.19;40.46;100695.80;432519;1269;141981;-63
2022/03/12 21:57:55;;;;;;;60.60;28.00;;;;;;;-2.44;41.05;100691.88;431567;1270;142102;-63
2022/03/12 22:08:03;;;;;;;58.60;31.80;;;;;;;-2.79;41.98;100677.70;431953;1270;140913;-63
2022/03/12 22:18:10;;;;;;;45.00;25.00;;;;;;;-3.10;43.03;100667.34;432550;1270;143267;-64
2022/03/12 22:28:17;;;;;;;46.60;25.30;;;;;;;-3.10;42.28;100667.33;432268;1270;142353;-64
2022/03/12 22:38:22;;;;;;;43.60;23.00;;;;;;;-3.04;42.16;100653.69;432126;1270;142722;-66
2022/03/12 22:48:29;;;;;;;46.80;26.20;;;;;;;-3.09;42.43;100653.81;431366;1270;143126;-63
2022/03/12 22:58:35;;;;;;;52.00;29.60;;;;;;;-3.19;43.32;100650.97;432161;1270;141698;-63
2022/03/12 23:08:51;;;;;;;77.80;41.80;;;;;;;-3.45;44.15;100649.69;432146;1270;142970;-63
2022/03/12 23:18:59;;;;;;;56.90;34.90;;;;;;;-3.72;45.40;100645.98;431791;1270;142719;-68
2022/03/12 23:29:08;;;;;;;44.50;25.40;;;;;;;-3.80;44.76;100638.52;431684;1270;141335;-64
2022/03/12 23:39:15;;;;;;;53.00;31.00;;;;;;;-3.70;44.63;100632.82;431612;1270;141393;-63
2022/03/12 23:49:24;;;;;;;49.00;26.30;;;;;;;-3.73;45.26;100647.50;432795;1270;141374;-63
2022/03/12 23:59:36;;;;;;;43.00;23.00;;;;;;;-3.66;44.74;100646.72;433041;1270;342612;-63
